sensor_id;sensor_type;location;lat;lon;timestamp;P1;durP1;ratioP1;P2;durP2;ratioP2
56794;SDS011;42678;59.400;18.410;2023-02-11T00:00:16;8.57;;;1.50;;
56794;SDS011;42678;59.400;18.410;2023-02-11T00:02:42;4.30;;;1.00;;
56794;SDS011;42678;59.400;18.410;2023-02-11T00:05:08;3.80;;;1.20;;
56794;SDS011;42678;59.400;18.410;2023-02-11T00:07:34;4.28;;;1.25;;
56794;SDS011;42678;59.400;18.410;2023-02-11T00:10:00;3.45;;;1.48;;
56794;SDS011;42678;59.400;18.410;2023-02-11T00:12:29;5.20;;;1.85;;
56794;SDS011;42678;59.400;18.410;2023-02-11T00:14:55;3.97;;;2.20;;
56794;SDS011;42678;59.400;18.410;2023-02-11T00:17:22;7.05;;;1.80;;
56794;SDS011;42678;59.400;18.410;2023-02-11T00:19:48;4.20;;;1.55;;
56794;SDS011;42678;59.400;18.410;2023-02-11T00:22:14;9.82;;;2.00;;
56794;SDS011;42678;59.400;18.410;2023-02-11T00:24:40;6.38;;;1.50;;
56794;SDS011;42678;59.400;18.410;2023-02-11T00:27:06;4.72;;;1.23;;
56794;SDS011;42678;59.400;18.410;2023-02-11T00:29:31;8.35;;;1.70;;
56794;SDS011;42678;59.400;18.410;2023-02-11T00:31:57;4.30;;;1.67;;
56794;SDS011;42678;59.400;18.410;2023-02-11T00:34:32;4.60;;;1.60;;
56794;SDS011;42678;59.400;18.410;2023-02-11T00:36:58;10.63;;;2.00;;
56794;SDS011;42678;59.400;18.410;2023-02-11T00:39:24;7.68;;;1.83;;
56794;SDS011;42678;59.400;18.410;2023-02-11T00:41:50;7.35;;;1.92;;
56794;SDS011;42678;59.400;18.410;2023-02-11T00:44:15;9.80;;;2.05;;
56794;SDS011;42678;59.400;18.410;2023-02-11T00:46:41;4.75;;;1.88;;
56794;SDS011;42678;59.400;18.410;2023-02-11T00:49:07;5.32;;;2.20;;
56794;SDS011;42678;59.400;18.410;2023-02-11T00:51:33;6.75;;;3.20;;
56794;SDS011;42678;59.400;18.410;2023-02-11T00:53:58;7.55;;;2.25;;
56794;SDS011;42678;59.400;18.410;2023-02-11T00:56:24;7.78;;;2.80;;
56794;SDS011;42678;59.400;18.410;2023-02-11T00:58:50;10.25;;;3.47;;
56794;SDS011;42678;59.400;18.410;2023-02-11T01:01:17;14.32;;;2.78;;
56794;SDS011;42678;59.400;18.410;2023-02-11T01:03:43;12.25;;;3.90;;
56794;SDS011;42678;59.400;18.410;2023-02-11T01:06:09;11.27;;;3.10;;
56794;SDS011;42678;59.400;18.410;2023-02-11T01:08:34;10.25;;;3.38;;
56794;SDS011;42678;59.400;18.410;2023-02-11T01:11:03;12.80;;;3.58;;
56794;SDS011;42678;59.400;18.410;2023-02-11T01:13:31;16.52;;;3.72;;
56794;SDS011;42678;59.400;18.410;2023-02-11T01:15:59;13.40;;;2.70;;
56794;SDS011;42678;59.400;18.410;2023-02-11T01:18:25;7.50;;;2.83;;
56794;SDS011;42678;59.400;18.410;2023-02-11T01:20:51;9.52;;;2.83;;
56794;SDS011;42678;59.400;18.410;2023-02-11T01:23:18;12.38;;;3.30;;
56794;SDS011;42678;59.400;18.410;2023-02-11T01:25:44;11.43;;;3.88;;
56794;SDS011;42678;59.400;18.410;2023-02-11T01:28:14;14.82;;;3.60;;
56794;SDS011;42678;59.400;18.410;2023-02-11T01:30:41;8.88;;;3.22;;
56794;SDS011;42678;59.400;18.410;2023-02-11T01:33:07;12.07;;;3.97;;
56794;SDS011;42678;59.400;18.410;2023-02-11T01:35:33;5.57;;;2.38;;
56794;SDS011;42678;59.400;18.410;2023-02-11T01:37:58;13.75;;;3.17;;
56794;SDS011;42678;59.400;18.410;2023-02-11T01:40:24;9.40;;;3.60;;
56794;SDS011;42678;59.400;18.410;2023-02-11T01:42:50;9.73;;;3.05;;
56794;SDS011;42678;59.400;18.410;2023-02-11T01:48:21;7.20;;;2.60;;
56794;SDS011;42678;59.400;18.410;2023-02-11T01:51:02;6.95;;;2.67;;
56794;SDS011;42678;59.400;18.410;2023-02-11T01:53:32;7.45;;;2.60;;
56794;SDS011;42678;59.400;18.410;2023-02-11T01:56:18;9.85;;;3.00;;
56794;SDS011;42678;59.400;18.410;2023-02-11T01:59:09;33.92;;;3.80;;
56794;SDS011;42678;59.400;18.410;2023-02-11T02:01:43;10.45;;;3.17;;
56794;SDS011;42678;59.400;18.410;2023-02-11T02:04:15;10.30;;;2.85;;
56794;SDS011;42678;59.400;18.410;2023-02-11T02:06:45;8.10;;;2.65;;
56794;SDS011;42678;59.400;18.410;2023-02-11T02:09:20;11.20;;;2.38;;
56794;SDS011;42678;59.400;18.410;2023-02-11T02:11:49;9.35;;;2.08;;
56794;SDS011;42678;59.400;18.410;2023-02-11T02:14:15;6.03;;;2.40;;
56794;SDS011;42678;59.400;18.410;2023-02-11T02:16:41;10.82;;;2.75;;
56794;SDS011;42678;59.400;18.410;2023-02-11T02:24:36;11.00;;;2.25;;
56794;SDS011;42678;59.400;18.410;2023-02-11T02:30:13;12.15;;;3.10;;
56794;SDS011;42678;59.400;18.410;2023-02-11T02:36:13;9.98;;;3.08;;
56794;SDS011;42678;59.400;18.410;2023-02-11T02:38:58;9.77;;;3.03;;
56794;SDS011;42678;59.400;18.410;2023-02-11T02:41:29;10.25;;;2.83;;
56794;SDS011;42678;59.400;18.410;2023-02-11T02:43:57;9.50;;;3.17;;
56794;SDS011;42678;59.400;18.410;2023-02-11T02:46:24;10.73;;;3.10;;
56794;SDS011;42678;59.400;18.410;2023-02-11T02:48:55;8.00;;;2.63;;
56794;SDS011;42678;59.400;18.410;2023-02-11T02:51:26;10.68;;;2.90;;
56794;SDS011;42678;59.400;18.410;2023-02-11T02:56:53;9.65;;;2.63;;
56794;SDS011;42678;59.400;18.410;2023-02-11T03:03:05;10.57;;;3.42;;
56794;SDS011;42678;59.400;18.410;2023-02-11T03:08:39;11.27;;;3.30;;
56794;SDS011;42678;59.400;18.410;2023-02-11T03:11:10;10.70;;;3.30;;
56794;SDS011;42678;59.400;18.410;2023-02-11T03:13:39;13.15;;;2.90;;
56794;SDS011;42678;59.400;18.410;2023-02-11T03:16:08;18.08;;;3.85;;
56794;SDS011;42678;59.400;18.410;2023-02-11T03:18:38;8.80;;;2.55;;
56794;SDS011;42678;59.400;18.410;2023-02-11T03:21:09;14.43;;;3.97;;
56794;SDS011;42678;59.400;18.410;2023-02-11T03:23:38;12.60;;;3.10;;
56794;SDS011;42678;59.400;18.410;2023-02-11T03:26:13;8.30;;;2.58;;
56794;SDS011;42678;59.400;18.410;2023-02-11T03:28:51;6.25;;;2.03;;
56794;SDS011;42678;59.400;18.410;2023-02-11T03:31:33;7.13;;;2.40;;
56794;SDS011;42678;59.400;18.410;2023-02-11T03:34:14;6.55;;;1.92;;
56794;SDS011;42678;59.400;18.410;2023-02-11T03:36:45;2.20;;;1.00;;
56794;SDS011;42678;59.400;18.410;2023-02-11T03:41:54;3.92;;;0.60;;
56794;SDS011;42678;59.400;18.410;2023-02-11T03:44:22;5.00;;;0.65;;
56794;SDS011;42678;59.400;18.410;2023-02-11T03:46:53;3.70;;;0.57;;
56794;SDS011;42678;59.400;18.410;2023-02-11T03:49:20;1.75;;;0.15;;
56794;SDS011;42678;59.400;18.410;2023-02-11T03:51:49;5.85;;;0.93;;
56794;SDS011;42678;59.400;18.410;2023-02-11T03:54:23;0.85;;;0.20;;
56794;SDS011;42678;59.400;18.410;2023-02-11T03:56:54;1.58;;;0.60;;
56794;SDS011;42678;59.400;18.410;2023-02-11T03:59:23;3.15;;;0.43;;
56794;SDS011;42678;59.400;18.410;2023-02-11T04:01:49;4.78;;;0.30;;
56794;SDS011;42678;59.400;18.410;2023-02-11T04:04:15;3.40;;;0.55;;
56794;SDS011;42678;59.400;18.410;2023-02-11T04:06:41;0.55;;;0.10;;
56794;SDS011;42678;59.400;18.410;2023-02-11T04:09:07;0.90;;;0.30;;
56794;SDS011;42678;59.400;18.410;2023-02-11T04:11:33;2.03;;;0.20;;
56794;SDS011;42678;59.400;18.410;2023-02-11T04:14:00;2.58;;;0.30;;
56794;SDS011;42678;59.400;18.410;2023-02-11T04:16:26;3.35;;;0.30;;
56794;SDS011;42678;59.400;18.410;2023-02-11T04:18:51;2.53;;;0.88;;
56794;SDS011;42678;59.400;18.410;2023-02-11T04:21:17;4.90;;;0.93;;
56794;SDS011;42678;59.400;18.410;2023-02-11T04:23:43;0.98;;;0.40;;
56794;SDS011;42678;59.400;18.410;2023-02-11T04:26:09;2.20;;;0.30;;
56794;SDS011;42678;59.400;18.410;2023-02-11T04:28:34;0.22;;;0.10;;
56794;SDS011;42678;59.400;18.410;2023-02-11T04:31:00;3.47;;;0.65;;
56794;SDS011;42678;59.400;18.410;2023-02-11T04:33:26;1.35;;;0.40;;
56794;SDS011;42678;59.400;18.410;2023-02-11T04:35:52;4.03;;;0.55;;
56794;SDS011;42678;59.400;18.410;2023-02-11T04:38:17;1.75;;;0.17;;
56794;SDS011;42678;59.400;18.410;2023-02-11T04:40:43;1.70;;;0.30;;
56794;SDS011;42678;59.400;18.410;2023-02-11T04:43:09;3.17;;;0.45;;
56794;SDS011;42678;59.400;18.410;2023-02-11T04:45:34;1.73;;;0.30;;
56794;SDS011;42678;59.400;18.410;2023-02-11T04:48:00;0.50;;;0.10;;
56794;SDS011;42678;59.400;18.410;2023-02-11T04:50:27;2.90;;;0.98;;
56794;SDS011;42678;59.400;18.410;2023-02-11T04:52:53;1.13;;;0.20;;
56794;SDS011;42678;59.400;18.410;2023-02-11T04:55:19;0.95;;;0.17;;
56794;SDS011;42678;59.400;18.410;2023-02-11T04:57:44;1.08;;;0.32;;
56794;SDS011;42678;59.400;18.410;2023-02-11T05:00:10;2.70;;;0.32;;
56794;SDS011;42678;59.400;18.410;2023-02-11T05:02:36;2.00;;;0.50;;
56794;SDS011;42678;59.400;18.410;2023-02-11T05:05:02;7.18;;;1.00;;
56794;SDS011;42678;59.400;18.410;2023-02-11T05:07:29;2.53;;;0.20;;
56794;SDS011;42678;59.400;18.410;2023-02-11T05:09:54;1.23;;;0.10;;
56794;SDS011;42678;59.400;18.410;2023-02-11T05:12:20;3.63;;;0.57;;
56794;SDS011;42678;59.400;18.410;2023-02-11T05:14:46;1.85;;;0.40;;
56794;SDS011;42678;59.400;18.410;2023-02-11T05:17:11;1.95;;;0.20;;
56794;SDS011;42678;59.400;18.410;2023-02-11T05:19:37;2.40;;;0.38;;
56794;SDS011;42678;59.400;18.410;2023-02-11T05:22:03;3.45;;;0.32;;
56794;SDS011;42678;59.400;18.410;2023-02-11T05:24:31;4.47;;;0.30;;
56794;SDS011;42678;59.400;18.410;2023-02-11T05:26:57;2.13;;;0.30;;
56794;SDS011;42678;59.400;18.410;2023-02-11T05:29:23;0.60;;;0.10;;
56794;SDS011;42678;59.400;18.410;2023-02-11T05:31:49;1.27;;;0.22;;
56794;SDS011;42678;59.400;18.410;2023-02-11T05:34:15;2.00;;;0.30;;
56794;SDS011;42678;59.400;18.410;2023-02-11T05:36:40;2.33;;;0.75;;
56794;SDS011;42678;59.400;18.410;2023-02-11T05:39:07;0.77;;;0.10;;
56794;SDS011;42678;59.400;18.410;2023-02-11T05:41:32;4.22;;;0.65;;
56794;SDS011;42678;59.400;18.410;2023-02-11T05:43:58;2.75;;;0.52;;
56794;SDS011;42678;59.400;18.410;2023-02-11T05:46:24;1.15;;;0.20;;
56794;SDS011;42678;59.400;18.410;2023-02-11T05:48:49;4.70;;;0.63;;
56794;SDS011;42678;59.400;18.410;2023-02-11T05:51:15;1.48;;;0.32;;
56794;SDS011;42678;59.400;18.410;2023-02-11T05:53:40;1.95;;;0.30;;
56794;SDS011;42678;59.400;18.410;2023-02-11T05:56:06;2.35;;;0.50;;
56794;SDS011;42678;59.400;18.410;2023-02-11T05:58:32;0.93;;;0.25;;
56794;SDS011;42678;59.400;18.410;2023-02-11T06:00:58;3.63;;;0.38;;
56794;SDS011;42678;59.400;18.410;2023-02-11T06:03:23;1.70;;;0.30;;
56794;SDS011;42678;59.400;18.410;2023-02-11T06:05:49;4.05;;;0.40;;
56794;SDS011;42678;59.400;18.410;2023-02-11T06:08:14;3.30;;;0.43;;
56794;SDS011;42678;59.400;18.410;2023-02-11T06:10:43;2.78;;;0.82;;
56794;SDS011;42678;59.400;18.410;2023-02-11T06:13:09;1.42;;;0.30;;
56794;SDS011;42678;59.400;18.410;2023-02-11T06:15:35;2.95;;;0.70;;
56794;SDS011;42678;59.400;18.410;2023-02-11T06:18:01;1.38;;;0.25;;
56794;SDS011;42678;59.400;18.410;2023-02-11T06:20:26;3.03;;;1.13;;
56794;SDS011;42678;59.400;18.410;2023-02-11T06:22:52;5.47;;;0.47;;
56794;SDS011;42678;59.400;18.410;2023-02-11T06:25:18;4.90;;;0.73;;
56794;SDS011;42678;59.400;18.410;2023-02-11T06:27:46;3.22;;;0.65;;
56794;SDS011;42678;59.400;18.410;2023-02-11T06:30:12;7.47;;;0.80;;
56794;SDS011;42678;59.400;18.410;2023-02-11T06:32:38;4.25;;;0.93;;
56794;SDS011;42678;59.400;18.410;2023-02-11T06:35:04;2.60;;;0.68;;
56794;SDS011;42678;59.400;18.410;2023-02-11T06:37:30;3.23;;;0.40;;
56794;SDS011;42678;59.400;18.410;2023-02-11T06:39:55;3.60;;;0.95;;
56794;SDS011;42678;59.400;18.410;2023-02-11T06:42:21;5.63;;;0.95;;
56794;SDS011;42678;59.400;18.410;2023-02-11T06:44:47;7.45;;;0.90;;
56794;SDS011;42678;59.400;18.410;2023-02-11T06:47:13;3.60;;;0.65;;
56794;SDS011;42678;59.400;18.410;2023-02-11T06:49:38;2.70;;;0.43;;
56794;SDS011;42678;59.400;18.410;2023-02-11T06:52:04;5.03;;;0.45;;
56794;SDS011;42678;59.400;18.410;2023-02-11T06:54:30;5.20;;;1.25;;
56794;SDS011;42678;59.400;18.410;2023-02-11T06:56:55;2.15;;;0.65;;
56794;SDS011;42678;59.400;18.410;2023-02-11T06:59:21;4.13;;;0.60;;
56794;SDS011;42678;59.400;18.410;2023-02-11T07:01:47;4.45;;;0.70;;
56794;SDS011;42678;59.400;18.410;2023-02-11T07:04:12;6.35;;;0.60;;
56794;SDS011;42678;59.400;18.410;2023-02-11T07:06:41;10.88;;;1.55;;
56794;SDS011;42678;59.400;18.410;2023-02-11T07:09:07;4.88;;;1.00;;
56794;SDS011;42678;59.400;18.410;2023-02-11T07:11:33;3.45;;;0.77;;
56794;SDS011;42678;59.400;18.410;2023-02-11T07:14:00;3.63;;;1.05;;
56794;SDS011;42678;59.400;18.410;2023-02-11T07:16:28;5.35;;;1.15;;
56794;SDS011;42678;59.400;18.410;2023-02-11T07:18:54;3.05;;;0.77;;
56794;SDS011;42678;59.400;18.410;2023-02-11T07:21:20;1.65;;;0.40;;
56794;SDS011;42678;59.400;18.410;2023-02-11T07:23:48;4.13;;;1.13;;
56794;SDS011;42678;59.400;18.410;2023-02-11T07:26:16;2.58;;;0.50;;
56794;SDS011;42678;59.400;18.410;2023-02-11T07:28:43;6.05;;;0.70;;
56794;SDS011;42678;59.400;18.410;2023-02-11T07:31:18;4.57;;;0.82;;
56794;SDS011;42678;59.400;18.410;2023-02-11T07:33:46;5.57;;;0.73;;
56794;SDS011;42678;59.400;18.410;2023-02-11T07:36:13;3.17;;;0.50;;
56794;SDS011;42678;59.400;18.410;2023-02-11T07:38:40;9.35;;;0.98;;
56794;SDS011;42678;59.400;18.410;2023-02-11T07:41:07;3.60;;;0.80;;
56794;SDS011;42678;59.400;18.410;2023-02-11T07:43:36;3.40;;;1.15;;
56794;SDS011;42678;59.400;18.410;2023-02-11T07:46:03;5.53;;;1.63;;
56794;SDS011;42678;59.400;18.410;2023-02-11T07:48:30;7.43;;;1.17;;
56794;SDS011;42678;59.400;18.410;2023-02-11T07:53:52;2.05;;;0.70;;
56794;SDS011;42678;59.400;18.410;2023-02-11T07:56:18;6.43;;;0.95;;
56794;SDS011;42678;59.400;18.410;2023-02-11T07:58:45;5.22;;;0.88;;
56794;SDS011;42678;59.400;18.410;2023-02-11T08:01:22;5.50;;;0.93;;
56794;SDS011;42678;59.400;18.410;2023-02-11T08:03:52;3.70;;;0.70;;
56794;SDS011;42678;59.400;18.410;2023-02-11T08:06:19;5.03;;;1.30;;
56794;SDS011;42678;59.400;18.410;2023-02-11T08:08:47;5.10;;;1.10;;
56794;SDS011;42678;59.400;18.410;2023-02-11T08:11:20;5.03;;;1.10;;
56794;SDS011;42678;59.400;18.410;2023-02-11T08:13:47;4.55;;;0.90;;
56794;SDS011;42678;59.400;18.410;2023-02-11T08:18:50;5.43;;;0.80;;
56794;SDS011;42678;59.400;18.410;2023-02-11T08:21:17;6.93;;;1.60;;
56794;SDS011;42678;59.400;18.410;2023-02-11T08:23:44;4.00;;;0.75;;
56794;SDS011;42678;59.400;18.410;2023-02-11T08:26:12;5.70;;;0.77;;
56794;SDS011;42678;59.400;18.410;2023-02-11T08:28:42;3.30;;;0.85;;
56794;SDS011;42678;59.400;18.410;2023-02-11T08:31:10;7.03;;;2.13;;
56794;SDS011;42678;59.400;18.410;2023-02-11T08:33:38;5.90;;;1.13;;
56794;SDS011;42678;59.400;18.410;2023-02-11T08:36:07;4.85;;;0.80;;
56794;SDS011;42678;59.400;18.410;2023-02-11T08:38:38;4.72;;;1.02;;
56794;SDS011;42678;59.400;18.410;2023-02-11T08:41:04;2.65;;;0.65;;
56794;SDS011;42678;59.400;18.410;2023-02-11T08:43:30;6.57;;;1.05;;
56794;SDS011;42678;59.400;18.410;2023-02-11T08:45:57;4.55;;;0.95;;
56794;SDS011;42678;59.400;18.410;2023-02-11T08:48:23;2.47;;;0.77;;
56794;SDS011;42678;59.400;18.410;2023-02-11T08:50:49;6.05;;;1.35;;
56794;SDS011;42678;59.400;18.410;2023-02-11T08:53:14;5.32;;;1.08;;
56794;SDS011;42678;59.400;18.410;2023-02-11T08:55:41;2.78;;;0.93;;
56794;SDS011;42678;59.400;18.410;2023-02-11T08:58:13;8.80;;;1.60;;
56794;SDS011;42678;59.400;18.410;2023-02-11T09:00:38;2.65;;;0.77;;
56794;SDS011;42678;59.400;18.410;2023-02-11T09:03:05;4.93;;;1.00;;
56794;SDS011;42678;59.400;18.410;2023-02-11T09:05:31;3.85;;;0.63;;
56794;SDS011;42678;59.400;18.410;2023-02-11T09:07:57;4.40;;;1.13;;
56794;SDS011;42678;59.400;18.410;2023-02-11T09:10:22;7.53;;;1.42;;
56794;SDS011;42678;59.400;18.410;2023-02-11T09:12:48;6.47;;;2.47;;
56794;SDS011;42678;59.400;18.410;2023-02-11T09:15:14;5.30;;;2.03;;
56794;SDS011;42678;59.400;18.410;2023-02-11T09:17:39;3.58;;;0.88;;
56794;SDS011;42678;59.400;18.410;2023-02-11T09:20:08;8.27;;;0.93;;
56794;SDS011;42678;59.400;18.410;2023-02-11T09:22:34;6.65;;;1.10;;
56794;SDS011;42678;59.400;18.410;2023-02-11T09:24:59;3.00;;;0.93;;
56794;SDS011;42678;59.400;18.410;2023-02-11T09:27:26;7.55;;;0.90;;
56794;SDS011;42678;59.400;18.410;2023-02-11T09:29:52;4.35;;;0.80;;
56794;SDS011;42678;59.400;18.410;2023-02-11T09:32:17;4.80;;;1.70;;
56794;SDS011;42678;59.400;18.410;2023-02-11T09:34:43;5.05;;;0.90;;
56794;SDS011;42678;59.400;18.410;2023-02-11T09:37:08;7.78;;;1.20;;
56794;SDS011;42678;59.400;18.410;2023-02-11T09:39:34;5.30;;;1.20;;
56794;SDS011;42678;59.400;18.410;2023-02-11T09:42:04;5.20;;;1.15;;
56794;SDS011;42678;59.400;18.410;2023-02-11T09:44:58;7.60;;;1.15;;
56794;SDS011;42678;59.400;18.410;2023-02-11T09:47:35;4.43;;;0.55;;
56794;SDS011;42678;59.400;18.410;2023-02-11T09:50:23;5.93;;;1.33;;
56794;SDS011;42678;59.400;18.410;2023-02-11T09:52:57;7.85;;;1.30;;
56794;SDS011;42678;59.400;18.410;2023-02-11T09:55:32;3.63;;;0.82;;
56794;SDS011;42678;59.400;18.410;2023-02-11T09:58:10;3.25;;;0.88;;
56794;SDS011;42678;59.400;18.410;2023-02-11T10:09:04;5.53;;;1.20;;
56794;SDS011;42678;59.400;18.410;2023-02-11T10:17:36;5.43;;;1.58;;
56794;SDS011;42678;59.400;18.410;2023-02-11T10:23:17;5.25;;;1.17;;
56794;SDS011;42678;59.400;18.410;2023-02-11T10:25:49;6.35;;;1.33;;
56794;SDS011;42678;59.400;18.410;2023-02-11T10:28:20;6.28;;;1.20;;
56794;SDS011;42678;59.400;18.410;2023-02-11T10:30:59;2.72;;;0.90;;
56794;SDS011;42678;59.400;18.410;2023-02-11T10:36:05;3.55;;;1.00;;
56794;SDS011;42678;59.400;18.410;2023-02-11T10:38:31;5.57;;;1.42;;
56794;SDS011;42678;59.400;18.410;2023-02-11T10:40:58;6.25;;;0.93;;
56794;SDS011;42678;59.400;18.410;2023-02-11T10:43:25;10.70;;;1.23;;
56794;SDS011;42678;59.400;18.410;2023-02-11T10:45:54;7.03;;;1.45;;
56794;SDS011;42678;59.400;18.410;2023-02-11T10:51:15;6.68;;;1.23;;
56794;SDS011;42678;59.400;18.410;2023-02-11T10:53:43;2.63;;;1.10;;
56794;SDS011;42678;59.400;18.410;2023-02-11T10:56:12;8.52;;;3.20;;
56794;SDS011;42678;59.400;18.410;2023-02-11T10:58:53;7.70;;;2.05;;
56794;SDS011;42678;59.400;18.410;2023-02-11T11:01:20;7.38;;;1.50;;
56794;SDS011;42678;59.400;18.410;2023-02-11T11:03:47;6.88;;;1.40;;
56794;SDS011;42678;59.400;18.410;2023-02-11T11:06:14;3.15;;;1.20;;
56794;SDS011;42678;59.400;18.410;2023-02-11T11:08:41;10.88;;;3.72;;
56794;SDS011;42678;59.400;18.410;2023-02-11T11:11:13;4.60;;;1.10;;
56794;SDS011;42678;59.400;18.410;2023-02-11T11:13:55;4.13;;;0.77;;
56794;SDS011;42678;59.400;18.410;2023-02-11T11:16:32;6.55;;;1.10;;
56794;SDS011;42678;59.400;18.410;2023-02-11T11:21:44;9.27;;;1.40;;
56794;SDS011;42678;59.400;18.410;2023-02-11T11:24:26;6.85;;;1.20;;
56794;SDS011;42678;59.400;18.410;2023-02-11T11:26:58;4.57;;;0.75;;
56794;SDS011;42678;59.400;18.410;2023-02-11T11:32:29;2.78;;;0.77;;
56794;SDS011;42678;59.400;18.410;2023-02-11T11:35:01;5.65;;;1.38;;
56794;SDS011;42678;59.400;18.410;2023-02-11T11:37:33;8.48;;;1.23;;
56794;SDS011;42678;59.400;18.410;2023-02-11T11:43:00;6.72;;;1.00;;
56794;SDS011;42678;59.400;18.410;2023-02-11T11:45:26;4.22;;;1.17;;
56794;SDS011;42678;59.400;18.410;2023-02-11T11:50:59;7.60;;;1.60;;
56794;SDS011;42678;59.400;18.410;2023-02-11T11:56:02;8.25;;;1.70;;
56794;SDS011;42678;59.400;18.410;2023-02-11T11:58:36;5.15;;;1.40;;
56794;SDS011;42678;59.400;18.410;2023-02-11T12:01:18;8.60;;;1.60;;
56794;SDS011;42678;59.400;18.410;2023-02-11T12:18:07;6.28;;;1.17;;
56794;SDS011;42678;59.400;18.410;2023-02-11T12:24:10;4.18;;;0.90;;
56794;SDS011;42678;59.400;18.410;2023-02-11T12:38:17;4.82;;;0.80;;
56794;SDS011;42678;59.400;18.410;2023-02-11T12:43:37;4.53;;;0.73;;
56794;SDS011;42678;59.400;18.410;2023-02-11T12:54:15;5.50;;;1.10;;
56794;SDS011;42678;59.400;18.410;2023-02-11T13:05:01;3.17;;;0.60;;
56794;SDS011;42678;59.400;18.410;2023-02-11T13:07:34;5.88;;;1.63;;
56794;SDS011;42678;59.400;18.410;2023-02-11T13:12:38;16.45;;;5.90;;
56794;SDS011;42678;59.400;18.410;2023-02-11T13:15:27;7.30;;;1.25;;
56794;SDS011;42678;59.400;18.410;2023-02-11T13:18:59;5.60;;;0.98;;
56794;SDS011;42678;59.400;18.410;2023-02-11T13:29:28;6.55;;;1.17;;
56794;SDS011;42678;59.400;18.410;2023-02-11T13:32:07;4.22;;;1.08;;
56794;SDS011;42678;59.400;18.410;2023-02-11T13:40:06;9.30;;;1.15;;
56794;SDS011;42678;59.400;18.410;2023-02-11T13:42:50;6.13;;;1.20;;
56794;SDS011;42678;59.400;18.410;2023-02-11T13:48:14;6.85;;;1.02;;
56794;SDS011;42678;59.400;18.410;2023-02-11T13:50:44;4.90;;;1.25;;
56794;SDS011;42678;59.400;18.410;2023-02-11T13:53:12;7.00;;;0.80;;
56794;SDS011;42678;59.400;18.410;2023-02-11T13:55:41;3.25;;;0.85;;
56794;SDS011;42678;59.400;18.410;2023-02-11T14:09:34;4.78;;;0.65;;
56794;SDS011;42678;59.400;18.410;2023-02-11T14:11:53;8.07;;;1.30;;
56794;SDS011;42678;59.400;18.410;2023-02-11T14:17:28;5.32;;;1.70;;
56794;SDS011;42678;59.400;18.410;2023-02-11T14:19:56;5.70;;;1.23;;
56794;SDS011;42678;59.400;18.410;2023-02-11T14:22:24;7.18;;;1.25;;
56794;SDS011;42678;59.400;18.410;2023-02-11T14:25:26;8.23;;;1.08;;
56794;SDS011;42678;59.400;18.410;2023-02-11T14:27:59;7.93;;;0.90;;
56794;SDS011;42678;59.400;18.410;2023-02-11T14:30:50;6.00;;;1.50;;
56794;SDS011;42678;59.400;18.410;2023-02-11T14:37:02;8.30;;;1.70;;
56794;SDS011;42678;59.400;18.410;2023-02-11T14:42:25;4.38;;;1.00;;
56794;SDS011;42678;59.400;18.410;2023-02-11T14:44:57;6.30;;;1.70;;
56794;SDS011;42678;59.400;18.410;2023-02-11T14:47:39;10.15;;;1.23;;
56794;SDS011;42678;59.400;18.410;2023-02-11T14:50:13;5.43;;;1.05;;
56794;SDS011;42678;59.400;18.410;2023-02-11T14:52:43;4.15;;;0.80;;
56794;SDS011;42678;59.400;18.410;2023-02-11T14:58:04;10.25;;;1.27;;
56794;SDS011;42678;59.400;18.410;2023-02-11T15:00:31;3.80;;;1.20;;
56794;SDS011;42678;59.400;18.410;2023-02-11T15:02:57;5.38;;;2.28;;
56794;SDS011;42678;59.400;18.410;2023-02-11T15:05:24;5.32;;;1.13;;
56794;SDS011;42678;59.400;18.410;2023-02-11T15:08:02;8.18;;;0.85;;
56794;SDS011;42678;59.400;18.410;2023-02-11T15:10:34;6.03;;;0.63;;
56794;SDS011;42678;59.400;18.410;2023-02-11T15:13:05;4.22;;;0.95;;
56794;SDS011;42678;59.400;18.410;2023-02-11T15:15:32;4.32;;;0.85;;
56794;SDS011;42678;59.400;18.410;2023-02-11T15:18:02;6.78;;;1.58;;
56794;SDS011;42678;59.400;18.410;2023-02-11T15:20:31;7.53;;;1.20;;
56794;SDS011;42678;59.400;18.410;2023-02-11T15:23:00;6.55;;;1.10;;
56794;SDS011;42678;59.400;18.410;2023-02-11T15:25:29;7.78;;;1.58;;
56794;SDS011;42678;59.400;18.410;2023-02-11T15:27:56;4.23;;;0.90;;
56794;SDS011;42678;59.400;18.410;2023-02-11T15:35:23;4.40;;;1.10;;
56794;SDS011;42678;59.400;18.410;2023-02-11T15:37:55;4.50;;;1.57;;
56794;SDS011;42678;59.400;18.410;2023-02-11T15:40:24;7.80;;;1.63;;
56794;SDS011;42678;59.400;18.410;2023-02-11T15:42:56;2.83;;;0.88;;
56794;SDS011;42678;59.400;18.410;2023-02-11T15:50:42;9.23;;;1.65;;
56794;SDS011;42678;59.400;18.410;2023-02-11T15:53:26;5.07;;;1.00;;
56794;SDS011;42678;59.400;18.410;2023-02-11T15:56:01;6.18;;;1.70;;
56794;SDS011;42678;59.400;18.410;2023-02-11T15:58:28;7.70;;;1.58;;
56794;SDS011;42678;59.400;18.410;2023-02-11T16:00:59;7.10;;;1.40;;
56794;SDS011;42678;59.400;18.410;2023-02-11T16:03:26;7.13;;;1.63;;
56794;SDS011;42678;59.400;18.410;2023-02-11T16:06:13;7.20;;;1.70;;
56794;SDS011;42678;59.400;18.410;2023-02-11T16:08:41;5.15;;;1.33;;
56794;SDS011;42678;59.400;18.410;2023-02-11T16:19:50;4.43;;;1.13;;
56794;SDS011;42678;59.400;18.410;2023-02-11T16:22:19;5.40;;;1.17;;
56794;SDS011;42678;59.400;18.410;2023-02-11T16:24:49;6.60;;;0.90;;
56794;SDS011;42678;59.400;18.410;2023-02-11T16:27:22;6.77;;;1.30;;
56794;SDS011;42678;59.400;18.410;2023-02-11T16:29:52;3.53;;;0.70;;
56794;SDS011;42678;59.400;18.410;2023-02-11T16:32:26;8.40;;;1.57;;
56794;SDS011;42678;59.400;18.410;2023-02-11T16:34:53;6.50;;;1.40;;
56794;SDS011;42678;59.400;18.410;2023-02-11T16:37:22;7.03;;;1.67;;
56794;SDS011;42678;59.400;18.410;2023-02-11T16:39:48;3.53;;;0.90;;
56794;SDS011;42678;59.400;18.410;2023-02-11T16:42:14;7.93;;;1.70;;
56794;SDS011;42678;59.400;18.410;2023-02-11T16:44:40;5.97;;;1.10;;
56794;SDS011;42678;59.400;18.410;2023-02-11T16:47:06;5.10;;;1.60;;
56794;SDS011;42678;59.400;18.410;2023-02-11T16:49:39;6.93;;;1.17;;
56794;SDS011;42678;59.400;18.410;2023-02-11T16:52:07;5.70;;;1.33;;
56794;SDS011;42678;59.400;18.410;2023-02-11T16:54:37;4.57;;;1.30;;
56794;SDS011;42678;59.400;18.410;2023-02-11T16:59:40;3.97;;;1.07;;
56794;SDS011;42678;59.400;18.410;2023-02-11T17:02:09;7.10;;;1.40;;
56794;SDS011;42678;59.400;18.410;2023-02-11T17:04:39;5.27;;;1.40;;
56794;SDS011;42678;59.400;18.410;2023-02-11T17:07:05;4.87;;;1.87;;
56794;SDS011;42678;59.400;18.410;2023-02-11T17:09:31;11.00;;;3.33;;
56794;SDS011;42678;59.400;18.410;2023-02-11T17:11:57;8.60;;;2.87;;
56794;SDS011;42678;59.400;18.410;2023-02-11T17:14:23;9.73;;;2.80;;
56794;SDS011;42678;59.400;18.410;2023-02-11T17:16:49;5.83;;;2.57;;
56794;SDS011;42678;59.400;18.410;2023-02-11T17:19:15;10.07;;;2.77;;
56794;SDS011;42678;59.400;18.410;2023-02-11T17:21:44;8.23;;;2.87;;
56794;SDS011;42678;59.400;18.410;2023-02-11T17:24:10;10.23;;;2.90;;
56794;SDS011;42678;59.400;18.410;2023-02-11T17:26:37;16.23;;;3.37;;
56794;SDS011;42678;59.400;18.410;2023-02-11T17:29:04;8.30;;;2.70;;
56794;SDS011;42678;59.400;18.410;2023-02-11T17:31:30;17.77;;;3.77;;
56794;SDS011;42678;59.400;18.410;2023-02-11T17:33:56;12.70;;;2.77;;
56794;SDS011;42678;59.400;18.410;2023-02-11T17:36:22;14.17;;;3.37;;
56794;SDS011;42678;59.400;18.410;2023-02-11T17:38:48;9.33;;;3.43;;
56794;SDS011;42678;59.400;18.410;2023-02-11T17:41:15;6.20;;;2.33;;
56794;SDS011;42678;59.400;18.410;2023-02-11T17:43:41;7.63;;;2.90;;
56794;SDS011;42678;59.400;18.410;2023-02-11T17:46:07;7.77;;;2.43;;